sensor_id;sensor_type;location;lat;lon;timestamp;pressure;altitude;pressure_sealevel;temperature;humidity
24013;BME280;12220;50.194;18.948;2023-12-20T00:01:18;101348.64;;;8.87;49.03
24013;BME280;12220;50.194;18.948;2023-12-20T00:03:22;101360.51;;;8.86;49.13
24013;BME280;12220;50.194;18.948;2023-12-20T00:05:30;101358.69;;;8.87;49.25
24013;BME280;12220;50.194;18.948;2023-12-20T00:07:39;101328.73;;;8.85;49.28
24013;BME280;12220;50.194;18.948;2023-12-20T00:09:40;101324.55;;;8.78;48.83
24013;BME280;12220;50.194;18.948;2023-12-20T00:11:41;101331.76;;;8.79;49.00
24013;BME280;12220;50.194;18.948;2023-12-20T00:13:45;101330.10;;;8.77;48.80
24013;BME280;12220;50.194;18.948;2023-12-20T00:15:47;101326.63;;;8.73;48.78
24013;BME280;12220;50.194;18.948;2023-12-20T00:17:48;101330.24;;;8.73;49.04
24013;BME280;12220;50.194;18.948;2023-12-20T00:19:49;101329.28;;;8.75;48.79
24013;BME280;12220;50.194;18.948;2023-12-20T00:22:00;101320.22;;;8.74;48.70
24013;BME280;12220;50.194;18.948;2023-12-20T00:24:02;101325.59;;;8.76;48.78
24013;BME280;12220;50.194;18.948;2023-12-20T00:26:04;101322.05;;;8.73;48.38
24013;BME280;12220;50.194;18.948;2023-12-20T00:28:06;101309.38;;;8.72;48.03
24013;BME280;12220;50.194;18.948;2023-12-20T00:30:20;101305.66;;;8.73;48.14
24013;BME280;12220;50.194;18.948;2023-12-20T00:32:21;101319.48;;;8.70;47.68
24013;BME280;12220;50.194;18.948;2023-12-20T00:34:23;101307.52;;;8.73;47.98
24013;BME280;12220;50.194;18.948;2023-12-20T00:36:25;101297.64;;;8.70;47.31
24013;BME280;12220;50.194;18.948;2023-12-20T00:38:30;101302.14;;;8.71;47.13
24013;BME280;12220;50.194;18.948;2023-12-20T00:40:33;101304.87;;;8.71;46.74
24013;BME280;12220;50.194;18.948;2023-12-20T00:42:35;101312.98;;;8.73;46.83
24013;BME280;12220;50.194;18.948;2023-12-20T00:44:39;101329.28;;;8.75;47.04
24013;BME280;12220;50.194;18.948;2023-12-20T00:46:45;101316.45;;;8.77;46.89
24013;BME280;12220;50.194;18.948;2023-12-20T00:48:49;101305.45;;;8.78;47.04
24013;BME280;12220;50.194;18.948;2023-12-20T00:50:50;101326.46;;;8.76;46.69
24013;BME280;12220;50.194;18.948;2023-12-20T00:52:51;101321.17;;;8.73;46.34
24013;BME280;12220;50.194;18.948;2023-12-20T00:55:00;101328.50;;;8.72;46.59
24013;BME280;12220;50.194;18.948;2023-12-20T00:57:01;101283.98;;;8.70;46.39
24013;BME280;12220;50.194;18.948;2023-12-20T00:59:11;101296.44;;;8.76;46.60
24013;BME280;12220;50.194;18.948;2023-12-20T01:01:12;100311.70;;;2.45;46.56
24013;BME280;12220;50.194;18.948;2023-12-20T01:03:15;101285.51;;;8.76;46.29
24013;BME280;12220;50.194;18.948;2023-12-20T01:05:18;101271.95;;;8.75;46.36
24013;BME280;12220;50.194;18.948;2023-12-20T01:07:23;101277.23;;;8.78;46.65
24013;BME280;12220;50.194;18.948;2023-12-20T01:09:31;101233.63;;;8.76;46.72
24013;BME280;12220;50.194;18.948;2023-12-20T01:11:32;101251.96;;;8.74;46.28
24013;BME280;12220;50.194;18.948;2023-12-20T01:13:37;101269.21;;;8.75;46.17
24013;BME280;12220;50.194;18.948;2023-12-20T01:15:38;101270.17;;;8.73;46.20
24013;BME280;12220;50.194;18.948;2023-12-20T01:17:43;101243.84;;;8.72;46.19
24013;BME280;12220;50.194;18.948;2023-12-20T01:19:46;101247.54;;;8.71;46.09
24013;BME280;12220;50.194;18.948;2023-12-20T01:21:47;101231.94;;;8.73;46.34
24013;BME280;12220;50.194;18.948;2023-12-20T01:23:48;101246.66;;;8.71;46.11
24013;BME280;12220;50.194;18.948;2023-12-20T01:26:01;101257.59;;;8.71;45.84
24013;BME280;12220;50.194;18.948;2023-12-20T01:28:08;101242.08;;;8.71;46.04
24013;BME280;12220;50.194;18.948;2023-12-20T01:30:10;101232.12;;;8.70;45.83
24013;BME280;12220;50.194;18.948;2023-12-20T01:32:11;101233.97;;;8.70;46.00
24013;BME280;12220;50.194;18.948;2023-12-20T01:34:18;101227.46;;;8.72;46.20
24013;BME280;12220;50.194;18.948;2023-12-20T01:36:19;101202.89;;;8.72;46.38
24013;BME280;12220;50.194;18.948;2023-12-20T01:38:20;101223.66;;;8.75;46.55
24013;BME280;12220;50.194;18.948;2023-12-20T01:40:22;101240.86;;;8.77;46.39
24013;BME280;12220;50.194;18.948;2023-12-20T01:42:24;101249.14;;;8.76;45.90
24013;BME280;12220;50.194;18.948;2023-12-20T01:44:31;101237.40;;;8.73;45.77
24013;BME280;12220;50.194;18.948;2023-12-20T01:46:32;101230.20;;;8.72;45.93
24013;BME280;12220;50.194;18.948;2023-12-20T01:48:34;101237.57;;;8.70;45.51
24013;BME280;12220;50.194;18.948;2023-12-20T01:50:37;101249.40;;;8.71;45.51
24013;BME280;12220;50.194;18.948;2023-12-20T01:52:46;101241.37;;;8.68;45.39
24013;BME280;12220;50.194;18.948;2023-12-20T01:54:48;101241.42;;;8.66;45.26
24013;BME280;12220;50.194;18.948;2023-12-20T01:56:50;101237.73;;;8.67;45.34
24013;BME280;12220;50.194;18.948;2023-12-20T01:58:55;101224.98;;;8.68;45.58
24013;BME280;12220;50.194;18.948;2023-12-20T02:01:08;101214.07;;;8.68;45.71
24013;BME280;12220;50.194;18.948;2023-12-20T02:03:10;101215.73;;;8.70;45.84
24013;BME280;12220;50.194;18.948;2023-12-20T02:05:13;101224.82;;;8.71;45.98
24013;BME280;12220;50.194;18.948;2023-12-20T02:07:15;101206.76;;;8.68;45.77
24013;BME280;12220;50.194;18.948;2023-12-20T02:09:18;101221.36;;;8.67;45.66
24013;BME280;12220;50.194;18.948;2023-12-20T02:11:21;101211.34;;;8.68;45.99
24013;BME280;12220;50.194;18.948;2023-12-20T02:13:22;101210.44;;;8.67;46.10
24013;BME280;12220;50.194;18.948;2023-12-20T02:15:24;101225.95;;;8.67;45.89
24013;BME280;12220;50.194;18.948;2023-12-20T02:17:33;101226.99;;;8.64;45.81
24013;BME280;12220;50.194;18.948;2023-12-20T02:19:38;101206.11;;;8.63;45.82
24013;BME280;12220;50.194;18.948;2023-12-20T02:21:39;101209.82;;;8.62;45.88
24013;BME280;12220;50.194;18.948;2023-12-20T02:23:41;101215.28;;;8.62;45.95
24013;BME280;12220;50.194;18.948;2023-12-20T02:25:48;100629.96;;;5.09;45.66
24013;BME280;12220;50.194;18.948;2023-12-20T02:27:49;101208.22;;;8.58;45.81
24013;BME280;12220;50.194;18.948;2023-12-20T02:29:51;101248.44;;;8.54;45.73
24013;BME280;12220;50.194;18.948;2023-12-20T02:31:53;101216.59;;;8.55;45.94
24013;BME280;12220;50.194;18.948;2023-12-20T02:34:03;101232.96;;;8.55;45.84
24013;BME280;12220;50.194;18.948;2023-12-20T02:36:06;101232.14;;;8.53;45.72
24013;BME280;12220;50.194;18.948;2023-12-20T02:38:07;101215.16;;;8.48;45.63
24013;BME280;12220;50.194;18.948;2023-12-20T02:40:09;101208.79;;;8.47;45.98
24013;BME280;12220;50.194;18.948;2023-12-20T02:42:18;101214.25;;;8.47;46.15
24013;BME280;12220;50.194;18.948;2023-12-20T02:44:19;101210.87;;;8.42;45.90
24013;BME280;12220;50.194;18.948;2023-12-20T02:46:21;101205.48;;;8.41;46.04
24013;BME280;12220;50.194;18.948;2023-12-20T02:48:22;101200.81;;;8.43;46.21
24013;BME280;12220;50.194;18.948;2023-12-20T02:50:33;101198.09;;;8.43;46.60
24013;BME280;12220;50.194;18.948;2023-12-20T02:52:40;100894.22;;;6.60;47.23
24013;BME280;12220;50.194;18.948;2023-12-20T02:54:41;101207.56;;;8.35;48.32
24013;BME280;12220;50.194;18.948;2023-12-20T02:56:43;101196.90;;;8.31;48.47
24013;BME280;12220;50.194;18.948;2023-12-20T02:58:48;101199.97;;;8.25;49.19
24013;BME280;12220;50.194;18.948;2023-12-20T03:00:49;101195.88;;;8.16;49.57
24013;BME280;12220;50.194;18.948;2023-12-20T03:02:51;101196.21;;;8.10;49.77
24013;BME280;12220;50.194;18.948;2023-12-20T03:04:53;101198.37;;;8.03;50.41
24013;BME280;12220;50.194;18.948;2023-12-20T03:07:03;101195.97;;;7.97;50.34
24013;BME280;12220;50.194;18.948;2023-12-20T03:09:05;101197.16;;;7.91;51.12
24013;BME280;12220;50.194;18.948;2023-12-20T03:11:06;101205.59;;;7.87;51.12
24013;BME280;12220;50.194;18.948;2023-12-20T03:13:07;101196.83;;;7.80;52.40
24013;BME280;12220;50.194;18.948;2023-12-20T03:15:18;101206.27;;;7.73;52.75
24013;BME280;12220;50.194;18.948;2023-12-20T03:17:19;101212.13;;;7.65;52.56
24013;BME280;12220;50.194;18.948;2023-12-20T03:19:21;101207.79;;;7.61;53.31
24013;BME280;12220;50.194;18.948;2023-12-20T03:21:23;101198.94;;;7.56;53.29
24013;BME280;12220;50.194;18.948;2023-12-20T03:23:33;101198.39;;;7.49;54.09
24013;BME280;12220;50.194;18.948;2023-12-20T03:25:34;101200.60;;;7.41;54.57
24013;BME280;12220;50.194;18.948;2023-12-20T03:27:39;101193.77;;;7.32;55.26
24013;BME280;12220;50.194;18.948;2023-12-20T03:29:41;101196.00;;;7.24;55.66
24013;BME280;12220;50.194;18.948;2023-12-20T03:31:48;101202.78;;;7.15;56.10
24013;BME280;12220;50.194;18.948;2023-12-20T03:33:49;101206.76;;;7.08;56.08
24013;BME280;12220;50.194;18.948;2023-12-20T03:35:54;101196.13;;;7.02;56.60
24013;BME280;12220;50.194;18.948;2023-12-20T03:37:55;101200.04;;;6.96;57.14
24013;BME280;12220;50.194;18.948;2023-12-20T03:40:03;101199.54;;;6.88;58.13
24013;BME280;12220;50.194;18.948;2023-12-20T03:42:06;101199.95;;;6.78;58.85
24013;BME280;12220;50.194;18.948;2023-12-20T03:44:07;101198.47;;;6.71;58.47
24013;BME280;12220;50.194;18.948;2023-12-20T03:46:08;101201.41;;;6.67;58.67
24013;BME280;12220;50.194;18.948;2023-12-20T03:48:18;101202.46;;;6.64;58.62
24013;BME280;12220;50.194;18.948;2023-12-20T03:50:21;101239.66;;;6.63;59.12
24013;BME280;12220;50.194;18.948;2023-12-20T03:52:23;101200.69;;;6.63;58.94
24013;BME280;12220;50.194;18.948;2023-12-20T03:54:24;101201.55;;;6.63;59.03
24013;BME280;12220;50.194;18.948;2023-12-20T03:56:33;101213.34;;;6.64;59.85
24013;BME280;12220;50.194;18.948;2023-12-20T03:58:34;101208.91;;;6.61;59.71
24013;BME280;12220;50.194;18.948;2023-12-20T04:00:36;101207.21;;;6.59;60.32
24013;BME280;12220;50.194;18.948;2023-12-20T04:02:38;101211.10;;;6.53;62.07
24013;BME280;12220;50.194;18.948;2023-12-20T04:04:48;101223.14;;;6.48;61.44
24013;BME280;12220;50.194;18.948;2023-12-20T04:06:50;101217.91;;;6.43;61.39
24013;BME280;12220;50.194;18.948;2023-12-20T04:08:51;101229.01;;;6.38;62.84
24013;BME280;12220;50.194;18.948;2023-12-20T04:10:53;101170.63;;;6.06;62.34
24013;BME280;12220;50.194;18.948;2023-12-20T04:13:03;101260.01;;;6.34;61.99
24013;BME280;12220;50.194;18.948;2023-12-20T04:15:08;101221.94;;;6.34;62.13
24013;BME280;12220;50.194;18.948;2023-12-20T04:17:17;101226.43;;;6.35;63.12
24013;BME280;12220;50.194;18.948;2023-12-20T04:19:19;101225.60;;;6.33;62.88
24013;BME280;12220;50.194;18.948;2023-12-20T04:21:21;101225.01;;;6.26;63.99
24013;BME280;12220;50.194;18.948;2023-12-20T04:23:22;101220.79;;;6.19;63.91
24013;BME280;12220;50.194;18.948;2023-12-20T04:25:24;101219.08;;;6.17;63.68
24013;BME280;12220;50.194;18.948;2023-12-20T04:27:31;101229.09;;;6.16;63.77
24013;BME280;12220;50.194;18.948;2023-12-20T04:29:34;101226.36;;;6.16;63.79
24013;BME280;12220;50.194;18.948;2023-12-20T04:31:35;101248.12;;;6.16;64.14
24013;BME280;12220;50.194;18.948;2023-12-20T04:33:39;101231.80;;;6.16;63.96
24013;BME280;12220;50.194;18.948;2023-12-20T04:35:41;101224.52;;;6.17;64.00
24013;BME280;12220;50.194;18.948;2023-12-20T04:37:49;101217.16;;;6.19;64.13
24013;BME280;12220;50.194;18.948;2023-12-20T04:39:50;101210.85;;;6.18;64.78
24013;BME280;12220;50.194;18.948;2023-12-20T04:41:55;101217.16;;;6.19;64.33
24013;BME280;12220;50.194;18.948;2023-12-20T04:44:06;101219.88;;;6.19;64.36
24013;BME280;12220;50.194;18.948;2023-12-20T04:46:07;101219.02;;;6.18;64.86
24013;BME280;12220;50.194;18.948;2023-12-20T04:48:09;101208.27;;;6.15;64.76
24013;BME280;12220;50.194;18.948;2023-12-20T04:50:10;101207.46;;;6.13;65.51
24013;BME280;12220;50.194;18.948;2023-12-20T04:52:20;101194.95;;;6.09;65.20
24013;BME280;12220;50.194;18.948;2023-12-20T04:54:21;101189.52;;;6.09;65.23
24013;BME280;12220;50.194;18.948;2023-12-20T04:56:23;101196.77;;;6.08;65.35
24013;BME280;12220;50.194;18.948;2023-12-20T04:58:30;101199.48;;;6.08;65.52
24013;BME280;12220;50.194;18.948;2023-12-20T05:00:31;101196.84;;;6.07;65.60
24013;BME280;12220;50.194;18.948;2023-12-20T05:02:35;101189.66;;;6.06;65.58
24013;BME280;12220;50.194;18.948;2023-12-20T05:04:37;101187.05;;;6.03;66.46
24013;BME280;12220;50.194;18.948;2023-12-20T05:06:38;101189.84;;;6.01;66.18
24013;BME280;12220;50.194;18.948;2023-12-20T05:08:39;101185.37;;;6.00;66.06
24013;BME280;12220;50.194;18.948;2023-12-20T05:10:49;101194.46;;;5.99;66.06
24013;BME280;12220;50.194;18.948;2023-12-20T05:12:50;101187.26;;;5.98;66.27
24013;BME280;12220;50.194;18.948;2023-12-20T05:14:54;101193.70;;;5.96;66.63
24013;BME280;12220;50.194;18.948;2023-12-20T05:16:55;101187.57;;;5.90;66.63
24013;BME280;12220;50.194;18.948;2023-12-20T05:19:04;101194.02;;;5.88;66.87
24013;BME280;12220;50.194;18.948;2023-12-20T05:21:09;101188.77;;;5.83;66.94
24013;BME280;12220;50.194;18.948;2023-12-20T05:23:10;101190.70;;;5.81;67.35
24013;BME280;12220;50.194;18.948;2023-12-20T05:25:16;101187.27;;;5.76;68.28
24013;BME280;12220;50.194;18.948;2023-12-20T05:27:19;101191.84;;;5.75;67.76
24013;BME280;12220;50.194;18.948;2023-12-20T05:29:22;101200.05;;;5.74;67.97
24013;BME280;12220;50.194;18.948;2023-12-20T05:31:24;101201.80;;;5.75;68.13
24013;BME280;12220;50.194;18.948;2023-12-20T05:33:25;101197.34;;;5.74;68.04
24013;BME280;12220;50.194;18.948;2023-12-20T05:35:34;101190.13;;;5.73;68.37
24013;BME280;12220;50.194;18.948;2023-12-20T05:37:35;101193.91;;;5.69;68.60
24013;BME280;12220;50.194;18.948;2023-12-20T05:39:37;101194.86;;;5.68;68.74
24013;BME280;12220;50.194;18.948;2023-12-20T05:41:42;101197.64;;;5.66;68.90
24013;BME280;12220;50.194;18.948;2023-12-20T05:43:49;101198.74;;;5.62;69.53
24013;BME280;12220;50.194;18.948;2023-12-20T05:45:51;101191.54;;;5.61;69.33
24013;BME280;12220;50.194;18.948;2023-12-20T05:47:52;101196.06;;;5.61;69.58
24013;BME280;12220;50.194;18.948;2023-12-20T05:49:54;101199.70;;;5.61;69.39
24013;BME280;12220;50.194;18.948;2023-12-20T05:52:04;101189.70;;;5.62;69.32
24013;BME280;12220;50.194;18.948;2023-12-20T05:54:06;101198.67;;;5.64;69.38
24013;BME280;12220;50.194;18.948;2023-12-20T05:56:07;101192.21;;;5.66;69.31
24013;BME280;12220;50.194;18.948;2023-12-20T05:58:08;101192.07;;;5.69;69.52
24013;BME280;12220;50.194;18.948;2023-12-20T06:00:27;101188.55;;;5.67;70.13
24013;BME280;12220;50.194;18.948;2023-12-20T06:02:31;101187.89;;;5.62;70.47
24013;BME280;12220;50.194;18.948;2023-12-20T06:04:33;101189.83;;;5.58;70.24
24013;BME280;12220;50.194;18.948;2023-12-20T06:06:40;101191.80;;;5.55;70.76
24013;BME280;12220;50.194;18.948;2023-12-20T06:08:43;101189.25;;;5.50;71.12
24013;BME280;12220;50.194;18.948;2023-12-20T06:10:44;101190.23;;;5.49;71.14
24013;BME280;12220;50.194;18.948;2023-12-20T06:12:46;101187.71;;;5.45;72.43
24013;BME280;12220;50.194;18.948;2023-12-20T06:14:52;101179.73;;;5.40;72.46
24013;BME280;12220;50.194;18.948;2023-12-20T06:16:53;101180.77;;;5.37;73.07
24013;BME280;12220;50.194;18.948;2023-12-20T06:21:20;101190.91;;;5.32;73.67
24013;BME280;12220;50.194;18.948;2023-12-20T06:23:22;100925.96;;;3.75;73.28
24013;BME280;12220;50.194;18.948;2023-12-20T06:25:27;101179.25;;;5.30;73.71
24013;BME280;12220;50.194;18.948;2023-12-20T06:27:33;101191.92;;;5.30;73.95
24013;BME280;12220;50.194;18.948;2023-12-20T06:29:35;101201.10;;;5.27;74.36
24013;BME280;12220;50.194;18.948;2023-12-20T06:31:36;101194.02;;;5.23;75.03
24013;BME280;12220;50.194;18.948;2023-12-20T06:33:43;101203.98;;;5.22;74.56
24013;BME280;12220;50.194;18.948;2023-12-20T06:35:47;101196.80;;;5.21;75.04
24013;BME280;12220;50.194;18.948;2023-12-20T06:37:48;101207.66;;;5.21;74.86
24013;BME280;12220;50.194;18.948;2023-12-20T06:39:50;101208.47;;;5.23;74.59
24013;BME280;12220;50.194;18.948;2023-12-20T06:41:56;101213.89;;;5.23;74.94
24013;BME280;12220;50.194;18.948;2023-12-20T06:43:58;101216.54;;;5.25;74.77
24013;BME280;12220;50.194;18.948;2023-12-20T06:46:02;101214.77;;;5.24;74.89
24013;BME280;12220;50.194;18.948;2023-12-20T06:48:04;101212.05;;;5.24;75.08
24013;BME280;12220;50.194;18.948;2023-12-20T06:50:12;101213.83;;;5.25;75.38
24013;BME280;12220;50.194;18.948;2023-12-20T06:52:13;101211.98;;;5.26;75.02
24013;BME280;12220;50.194;18.948;2023-12-20T06:54:14;101215.73;;;5.23;75.85
24013;BME280;12220;50.194;18.948;2023-12-20T06:56:16;101221.17;;;5.23;75.56
24013;BME280;12220;50.194;18.948;2023-12-20T06:58:27;101217.87;;;5.15;76.64
24013;BME280;12220;50.194;18.948;2023-12-20T07:00:28;101212.56;;;5.12;76.80
24013;BME280;12220;50.194;18.948;2023-12-20T07:02:30;101229.85;;;5.09;76.93
24013;BME280;12220;50.194;18.948;2023-12-20T07:04:32;101225.42;;;5.06;76.93
24013;BME280;12220;50.194;18.948;2023-12-20T07:06:42;101224.60;;;5.04;76.97
24013;BME280;12220;50.194;18.948;2023-12-20T07:08:43;101232.75;;;5.04;76.88
24013;BME280;12220;50.194;18.948;2023-12-20T07:10:44;101227.32;;;5.04;76.72
24013;BME280;12220;50.194;18.948;2023-12-20T07:12:46;101222.76;;;5.05;77.00
24013;BME280;12220;50.194;18.948;2023-12-20T07:14:57;101225.35;;;5.08;76.64
24013;BME280;12220;50.194;18.948;2023-12-20T07:16:58;101227.13;;;5.09;76.78
24013;BME280;12220;50.194;18.948;2023-12-20T07:18:59;101228.00;;;5.10;76.69
24013;BME280;12220;50.194;18.948;2023-12-20T07:21:01;101223.42;;;5.12;76.43
24013;BME280;12220;50.194;18.948;2023-12-20T07:23:12;101230.56;;;5.14;76.40
24013;BME280;12220;50.194;18.948;2023-12-20T07:25:13;101243.12;;;5.17;76.34
24013;BME280;12220;50.194;18.948;2023-12-20T07:27:15;101233.97;;;5.19;76.37
24013;BME280;12220;50.194;18.948;2023-12-20T07:29:17;101238.52;;;5.19;76.70
24013;BME280;12220;50.194;18.948;2023-12-20T07:31:27;101244.83;;;5.19;76.60
24013;BME280;12220;50.194;18.948;2023-12-20T07:33:28;101244.95;;;5.16;76.80
24013;BME280;12220;50.194;18.948;2023-12-20T07:35:30;101240.45;;;5.15;76.54
24013;BME280;12220;50.194;18.948;2023-12-20T07:37:32;101254.87;;;5.17;76.44
24013;BME280;12220;50.194;18.948;2023-12-20T07:39:42;101248.48;;;5.18;76.63
24013;BME280;12220;50.194;18.948;2023-12-20T07:41:46;101249.45;;;5.17;76.92
24013;BME280;12220;50.194;18.948;2023-12-20T07:43:48;101247.67;;;5.16;77.16
24013;BME280;12220;50.194;18.948;2023-12-20T07:45:50;101239.59;;;5.15;76.91
24013;BME280;12220;50.194;18.948;2023-12-20T07:47:57;101247.79;;;5.13;77.19
24013;BME280;12220;50.194;18.948;2023-12-20T07:49:58;101247.79;;;5.13;77.17
24013;BME280;12220;50.194;18.948;2023-12-20T07:52:00;101249.57;;;5.14;76.91
24013;BME280;12220;50.194;18.948;2023-12-20T07:54:01;101253.09;;;5.16;76.75
24013;BME280;12220;50.194;18.948;2023-12-20T07:56:16;101249.45;;;5.17;76.67
24013;BME280;12220;50.194;18.948;2023-12-20T07:58:18;101251.19;;;5.18;76.70
24013;BME280;12220;50.194;18.948;2023-12-20T08:00:19;101248.45;;;5.20;76.61
24013;BME280;12220;50.194;18.948;2023-12-20T08:02:21;101250.19;;;5.21;76.51
24013;BME280;12220;50.194;18.948;2023-12-20T08:04:27;101243.02;;;5.20;76.75
24013;BME280;12220;50.194;18.948;2023-12-20T08:06:29;101250.25;;;5.19;76.60
24013;BME280;12220;50.194;18.948;2023-12-20T08:08:30;101244.02;;;5.17;76.77
24013;BME280;12220;50.194;18.948;2023-12-20T08:10:32;101248.54;;;5.17;76.74
24013;BME280;12220;50.194;18.948;2023-12-20T08:12:43;101244.15;;;5.14;76.96
24013;BME280;12220;50.194;18.948;2023-12-20T08:14:45;101248.79;;;5.11;77.57
24013;BME280;12220;50.194;18.948;2023-12-20T08:16:47;101247.07;;;5.08;77.59
24013;BME280;12220;50.194;18.948;2023-12-20T08:18:48;101249.79;;;5.08;77.55
24013;BME280;12220;50.194;18.948;2023-12-20T08:20:58;101249.84;;;5.06;77.71
24013;BME280;12220;50.194;18.948;2023-12-20T08:23:02;101235.47;;;5.04;77.52
24013;BME280;12220;50.194;18.948;2023-12-20T08:25:04;101243.55;;;5.06;77.50
24013;BME280;12220;50.194;18.948;2023-12-20T08:27:05;101236.34;;;5.05;77.49
24013;BME280;12220;50.194;18.948;2023-12-20T08:29:14;101237.19;;;5.07;77.53
24013;BME280;12220;50.194;18.948;2023-12-20T08:31:18;101235.40;;;5.06;77.70
24013;BME280;12220;50.194;18.948;2023-12-20T08:33:20;101238.99;;;5.06;77.46
24013;BME280;12220;50.194;18.948;2023-12-20T08:35:21;101239.90;;;5.07;77.51
24013;BME280;12220;50.194;18.948;2023-12-20T08:37:29;101241.71;;;5.06;77.73
24013;BME280;12220;50.194;18.948;2023-12-20T08:39:31;101245.27;;;5.09;77.52
24013;BME280;12220;50.194;18.948;2023-12-20T08:41:35;101247.01;;;5.10;77.58
24013;BME280;12220;50.194;18.948;2023-12-20T08:43:37;101251.44;;;5.12;77.41
24013;BME280;12220;50.194;18.948;2023-12-20T08:45:43;101251.32;;;5.15;77.60
24013;BME280;12220;50.194;18.948;2023-12-20T08:47:47;101246.66;;;5.19;77.50
24013;BME280;12220;50.194;18.948;2023-12-20T08:49:49;101251.09;;;5.21;77.36
24013;BME280;12220;50.194;18.948;2023-12-20T08:51:51;101251.85;;;5.25;77.25
24013;BME280;12220;50.194;18.948;2023-12-20T08:54:01;101250.85;;;5.28;77.16
24013;BME280;12220;50.194;18.948;2023-12-20T08:56:03;101255.41;;;5.27;77.23
24013;BME280;12220;50.194;18.948;2023-12-20T08:58:04;101254.37;;;5.30;77.24
24013;BME280;12220;50.194;18.948;2023-12-20T09:00:11;101256.21;;;5.29;77.21
24013;BME280;12220;50.194;18.948;2023-12-20T09:02:14;101251.66;;;5.30;77.38
24013;BME280;12220;50.194;18.948;2023-12-20T09:04:16;101248.07;;;5.29;77.35
24013;BME280;12220;50.194;18.948;2023-12-20T09:06:17;101250.66;;;5.32;77.32
24013;BME280;12220;50.194;18.948;2023-12-20T09:08:19;101248.75;;;5.34;77.33
24013;BME280;12220;50.194;18.948;2023-12-20T09:10:30;101243.39;;;5.33;77.85
24013;BME280;12220;50.194;18.948;2023-12-20T09:12:31;101244.30;;;5.33;77.50
24013;BME280;12220;50.194;18.948;2023-12-20T09:14:32;101250.52;;;5.35;77.40
24013;BME280;12220;50.194;18.948;2023-12-20T09:16:34;101249.59;;;5.36;77.50
24013;BME280;12220;50.194;18.948;2023-12-20T09:18:45;101239.61;;;5.37;77.42
24013;BME280;12220;50.194;18.948;2023-12-20T09:20:46;101229.58;;;5.39;77.38
24013;BME280;12220;50.194;18.948;2023-12-20T09:22:48;101235.95;;;5.38;78.04
24013;BME280;12220;50.194;18.948;2023-12-20T09:24:49;101238.85;;;5.33;78.40
24013;BME280;12220;50.194;18.948;2023-12-20T09:27:00;101240.60;;;5.34;78.24
24013;BME280;12220;50.194;18.948;2023-12-20T09:29:01;101247.07;;;5.32;78.43
24013;BME280;12220;50.194;18.948;2023-12-20T09:31:04;101239.86;;;5.31;78.76
24013;BME280;12220;50.194;18.948;2023-12-20T09:33:06;101241.64;;;5.32;78.65
24013;BME280;12220;50.194;18.948;2023-12-20T09:35:15;101244.30;;;5.33;78.74
24013;BME280;12220;50.194;18.948;2023-12-20T09:37:17;101244.42;;;5.30;79.29
24013;BME280;12220;50.194;18.948;2023-12-20T09:39:19;101241.77;;;5.29;79.35
24013;BME280;12220;50.194;18.948;2023-12-20T09:41:23;101239.99;;;5.28;79.49
24013;BME280;12220;50.194;18.948;2023-12-20T09:43:30;101231.13;;;5.22;80.30
24013;BME280;12220;50.194;18.948;2023-12-20T09:45:32;101229.38;;;5.21;80.23
24013;BME280;12220;50.194;18.948;2023-12-20T09:47:34;101222.17;;;5.20;80.29
24013;BME280;12220;50.194;18.948;2023-12-20T09:49:36;101213.96;;;5.22;80.09
24013;BME280;12220;50.194;18.948;2023-12-20T09:51:46;101220.13;;;5.26;79.94
24013;BME280;12220;50.194;18.948;2023-12-20T09:53:54;101221.79;;;5.30;80.08
24013;BME280;12220;50.194;18.948;2023-12-20T09:55:59;101225.35;;;5.32;80.21
24013;BME280;12220;50.194;18.948;2023-12-20T09:58:03;101220.85;;;5.31;80.12
24013;BME280;12220;50.194;18.948;2023-12-20T10:00:07;101218.13;;;5.31;80.26
24013;BME280;12220;50.194;18.948;2023-12-20T10:02:13;101219.98;;;5.30;80.23
24013;BME280;12220;50.194;18.948;2023-12-20T10:04:17;101216.36;;;5.30;80.29
24013;BME280;12220;50.194;18.948;2023-12-20T10:06:23;101216.28;;;5.31;80.16
24013;BME280;12220;50.194;18.948;2023-12-20T10:08:24;101217.13;;;5.33;80.13
24013;BME280;12220;50.194;18.948;2023-12-20T10:10:27;101217.13;;;5.33;80.21
24013;BME280;12220;50.194;18.948;2023-12-20T10:12:28;101215.16;;;5.37;80.11
24013;BME280;12220;50.194;18.948;2023-12-20T10:14:33;101218.71;;;5.39;80.06
24013;BME280;12220;50.194;18.948;2023-12-20T10:16:38;101215.88;;;5.42;80.10
24013;BME280;12220;50.194;18.948;2023-12-20T10:18:39;101221.44;;;5.39;80.41
24013;BME280;12220;50.194;18.948;2023-12-20T10:20:41;101224.21;;;5.37;80.53
24013;BME280;12220;50.194;18.948;2023-12-20T10:22:44;101217.88;;;5.37;80.40
24013;BME280;12220;50.194;18.948;2023-12-20T10:24:53;101221.44;;;5.39;80.33
24013;BME280;12220;50.194;18.948;2023-12-20T10:27:06;101222.30;;;5.39;80.34
24013;BME280;12220;50.194;18.948;2023-12-20T10:29:08;101220.46;;;5.40;80.40
24013;BME280;12220;50.194;18.948;2023-12-20T10:33:27;101222.25;;;5.41;80.29
24013;BME280;12220;50.194;18.948;2023-12-20T10:35:35;101224.83;;;5.44;80.17
24013;BME280;12220;50.194;18.948;2023-12-20T10:37:37;101220.30;;;5.45;80.36
24013;BME280;12220;50.194;18.948;2023-12-20T10:39:42;101221.18;;;5.45;80.18
24013;BME280;12220;50.194;18.948;2023-12-20T10:41:47;101217.39;;;5.49;80.06
24013;BME280;12220;50.194;18.948;2023-12-20T10:43:52;101220.10;;;5.49;80.21
24013;BME280;12220;50.194;18.948;2023-12-20T10:45:53;101223.90;;;5.45;80.70
24013;BME280;12220;50.194;18.948;2023-12-20T10:47:56;101220.30;;;5.45;80.55
24013;BME280;12220;50.194;18.948;2023-12-20T10:50:01;101224.83;;;5.44;80.75
24013;BME280;12220;50.194;18.948;2023-12-20T10:52:06;101223.02;;;5.45;80.63